Terminal Aerodrome Forecast
Issued by NWS

Home | Current Version | Previous Version | Text Only | Print | Product List | Glossary On
Versions: 1 2 3 4 5 6 7 8 9 10 11 12 13
000
FTUS42 KTBW 220520
TAFRSW
TAF
KRSW 220520Z 2206/2306 10007KT P6SM SCT025
      TEMPO 2206/2208 SCT025
     FM220800 07006KT P6SM BKN015
      TEMPO 2208/2212 SCT015
     FM221400 12008KT P6SM SCT030 BKN250
     FM221900 15010KT P6SM VCTS SCT040CB BKN250
     FM230100 12005KT P6SM VCSH SCT020 BKN035=

USA.gov is the U.S. government's official web portal to all federal, state and local government web resources and services.